^^
Your Local Weather - Clay, NY Station Historical Data
Daily Summary for February 23, 2017 Units:  Metric    English   Both
« Previous Day
Next Day »
Daily Weekly Monthly Yearly Custom
  High: Low: Average:
Temperature: 20.9 °C 3.9 °C 11.6 °C
Dew Point: 11.4 °C 1.8 °C 6.8 °C
Humidity: 88% 53% 74%
Wind Speed: 12.9km/h 0km/h 3.2km/h
Wind Gust: 24.1km/h - -
Wind- - SW
Pressure: 1011.1 hPa 1002.6 hPa -
Precipitation: 0 mm    
Historical Graphs
 
 
Tabular Data for February 23, 2017
Time Temperature Dew Point Pressure Wind Wind Speed Wind Gust Humidity Rainfall Rate (Hourly) solar
00:04 6.1 °C 2.9 °C 1007.7 hPa Calm   3.2 km/h 80% 0 mm 0 W/m2
00:10 6.3 °C 3.3 °C 1007.7 hPa Calm     81% 0 mm 0 W/m2
00:15 6.6 °C 3.5 °C 1007.7 hPa Calm   1.6 km/h 81% 0 mm 0 W/m2
00:22 6.6 °C 3.3 °C 1007.7 hPa Calm     80% 0 mm 0 W/m2
00:28 6.5 °C 3.3 °C 1007.7 hPa Calm     80% 0 mm 0 W/m2
00:36 6.3 °C 3.1 °C 1007.7 hPa Calm     80% 0 mm 0 W/m2
00:42 6.2 °C 3.2 °C 1007.7 hPa Calm     81% 0 mm 0 W/m2
00:48 6.2 °C 3.2 °C 1007.7 hPa Calm     81% 0 mm 0 W/m2
00:54 6.3 °C 3.3 °C 1007.7 hPa Calm     81% 0 mm 0 W/m2
00:59 6.4 °C 3.4 °C 1007.7 hPa Calm     81% 0 mm 0 W/m2
01:06 6.3 °C 3.1 °C 1007.7 hPa Calm     80% 0 mm 0 W/m2
01:12 6.1 °C 2.9 °C 1007.3 hPa Calm     80% 0 mm 0 W/m2
01:18 5.9 °C 3.1 °C 1007.3 hPa Calm   1.6 km/h 82% 0 mm 0 W/m2
01:24 5.9 °C 3.1 °C 1007.3 hPa NE 1.6 km/h 1.6 km/h 82% 0 mm 0 W/m2
01:30 6 °C 3.2 °C 1007.3 hPa Calm     82% 0 mm 0 W/m2
01:35 5.8 °C 2.9 °C 1007 hPa NE 1.6 km/h 3.2 km/h 82% 0 mm 0 W/m2
01:42 5.7 °C 3 °C 1007 hPa Calm   1.6 km/h 83% 0 mm 0 W/m2
01:48 5.7 °C 3.2 °C 1007.3 hPa Calm   1.6 km/h 84% 0 mm 0 W/m2
01:54 5.7 °C 3.1 °C 1007 hPa Calm     83% 0 mm 0 W/m2
02:00 5.6 °C 2.9 °C 1007 hPa NE 1.6 km/h 1.6 km/h 83% 0 mm 0 W/m2
02:06 5.9 °C 3.4 °C 1007 hPa NE 1.6 km/h 1.6 km/h 84% 0 mm 0 W/m2
02:12 5.8 °C 2.9 °C 1006.7 hPa NE 1.6 km/h 3.2 km/h 82% 0 mm 0 W/m2
02:18 5.7 °C 3 °C 1006.7 hPa NE 1.6 km/h 3.2 km/h 83% 0 mm 0 W/m2
02:23 5.7 °C 3 °C 1006.7 hPa Calm   1.6 km/h 83% 0 mm 0 W/m2
02:29 5.6 °C 2.9 °C 1006.7 hPa Calm     83% 0 mm 0 W/m2
02:36 5.6 °C 2.9 °C 1006.7 hPa Calm   1.6 km/h 83% 0 mm 0 W/m2
02:42 5.6 °C 2.9 °C 1006.7 hPa Calm     83% 0 mm 0 W/m2
02:48 5.2 °C 2.5 °C 1006.3 hPa NE 1.6 km/h 3.2 km/h 83% 0 mm 0 W/m2
02:54 5.1 °C 2.6 °C 1006.3 hPa NE 1.6 km/h 1.6 km/h 84% 0 mm 0 W/m2
03:00 4.9 °C 2.4 °C 1006.3 hPa NE 1.6 km/h 3.2 km/h 84% 0 mm 0 W/m2
03:06 5 °C 2.5 °C 1006.3 hPa NE 1.6 km/h 3.2 km/h 84% 0 mm 0 W/m2
03:12 4.7 °C 2.2 °C 1006.3 hPa Calm   1.6 km/h 84% 0 mm 0 W/m2
03:18 4.6 °C 2.3 °C 1006.3 hPa Calm   1.6 km/h 85% 0 mm 0 W/m2
03:24 4.4 °C 2.1 °C 1006 hPa Calm     85% 0 mm 0 W/m2
03:30 4.3 °C 2.2 °C 1006 hPa Calm     86% 0 mm 0 W/m2
03:35 4.2 °C 2.1 °C 1006.3 hPa Calm   1.6 km/h 86% 0 mm 0 W/m2
03:42 4.2 °C 2.1 °C 1006.3 hPa Calm     86% 0 mm 0 W/m2
03:48 4.1 °C 1.9 °C 1006.3 hPa Calm     86% 0 mm 0 W/m2
03:54 4 °C 1.9 °C 1006.3 hPa Calm     86% 0 mm 0 W/m2
04:00 3.9 °C 1.8 °C 1006.3 hPa Calm     86% 0 mm 0 W/m2
04:06 4.3 °C 2.4 °C 1006.3 hPa Calm   3.2 km/h 88% 0 mm 0 W/m2
04:12 4.3 °C 2.3 °C 1006.3 hPa Calm     87% 0 mm 0 W/m2
04:18 4.3 °C 2.3 °C 1006.7 hPa Calm     87% 0 mm 0 W/m2
04:24 4.3 °C 2.3 °C 1006.3 hPa Calm     87% 0 mm 0 W/m2
04:30 4.2 °C 2.2 °C 1006.3 hPa Calm     87% 0 mm 0 W/m2
04:35 4.6 °C 2.8 °C 1006.7 hPa Calm     88% 0 mm 0 W/m2
04:42 4.7 °C 2.7 °C 1006.3 hPa Calm     87% 0 mm 0 W/m2
04:48 4.8 °C 2.8 °C 1006.3 hPa Calm     87% 0 mm 0 W/m2
04:54 4.8 °C 2.6 °C 1006.3 hPa Calm     86% 0 mm 0 W/m2
04:59 4.7 °C 2.6 °C 1006.3 hPa Calm     86% 0 mm 0 W/m2
05:05 4.7 °C 2.5 °C 1006.3 hPa Calm     86% 0 mm 0 W/m2
05:12 4.6 °C 2.4 °C 1006 hPa Calm   1.6 km/h 86% 0 mm 0 W/m2
05:18 4.7 °C 2.7 °C 1006 hPa Calm   1.6 km/h 87% 0 mm 0 W/m2
05:24 4.8 °C 2.8 °C 1006 hPa Calm     87% 0 mm 0 W/m2
05:29 5 °C 3.2 °C 1006 hPa Calm     88% 0 mm 0 W/m2
05:36 5.1 °C 3.1 °C 1006.3 hPa Calm     87% 0 mm 0 W/m2
05:42 5.3 °C 3.3 °C 1006 hPa Calm     87% 0 mm 0 W/m2
05:48 5.4 °C 3.4 °C 1006 hPa Calm     87% 0 mm 0 W/m2
05:54 5.4 °C 3.3 °C 1006 hPa Calm     86% 0 mm 0 W/m2
05:59 5.4 °C 3.3 °C 1006 hPa Calm     86% 0 mm 0 W/m2
06:05 5.4 °C 3.3 °C 1006.3 hPa Calm     86% 0 mm 0 W/m2
06:12 5.4 °C 3.1 °C 1006 hPa Calm     85% 0 mm 0 W/m2
06:18 5.3 °C 3.1 °C 1006 hPa Calm     86% 0 mm 0 W/m2
06:24 5.4 °C 3.4 °C 1006 hPa Calm     87% 0 mm 0 W/m2
06:29 5.7 °C 3.7 °C 1005.6 hPa Calm     87% 0 mm 0 W/m2
06:36 6.1 °C 4.1 °C 1005.6 hPa Calm   1.6 km/h 87% 0 mm 0 W/m2
06:42 6.3 °C 4.1 °C 1005.6 hPa Calm     86% 0 mm 0 W/m2
06:48 6.7 °C 4.5 °C 1005.6 hPa Calm   1.6 km/h 86% 0 mm 0 W/m2
06:53 6.7 °C 4.4 °C 1005.3 hPa Calm   1.6 km/h 85% 0 mm 0 W/m2
07:00 6.8 °C 4.3 °C 1005.3 hPa Calm     84% 0 mm 5 W/m2
07:05 7.1 °C 4.6 °C 1005.3 hPa Calm     84% 0 mm 7 W/m2
07:12 7.3 °C 4.8 °C 1005.3 hPa Calm     84% 0 mm 11 W/m2
07:18 7.3 °C 4.6 °C 1005.3 hPa Calm     83% 0 mm 14 W/m2
07:23 7.3 °C 4.6 °C 1005.3 hPa Calm     83% 0 mm 14 W/m2
07:29 7.2 °C 4.3 °C 1005.3 hPa Calm     82% 0 mm 16 W/m2
07:36 7.1 °C 4.4 °C 1005.3 hPa Calm     83% 0 mm 19 W/m2
07:42 7.1 °C 4.4 °C 1005.6 hPa Calm     83% 0 mm 35 W/m2
07:48 7 °C 4.5 °C 1005 hPa NE 1.6 km/h 3.2 km/h 84% 0 mm 42 W/m2
07:54 7.3 °C 4.9 °C 1005 hPa NE 1.6 km/h 1.6 km/h 85% 0 mm 65 W/m2
08:00 7.7 °C 5.1 °C 1005 hPa Calm     84% 0 mm 67 W/m2
08:06 7.8 °C 5.2 °C 1005.3 hPa Calm     84% 0 mm 72 W/m2
08:12 8 °C 5.3 °C 1005.3 hPa Calm     83% 0 mm 134 W/m2
08:18 8.1 °C 5.1 °C 1005 hPa NE 1.6 km/h 3.2 km/h 81% 0 mm 39 W/m2
08:23 8.1 °C 5.1 °C 1005 hPa NE 1.6 km/h 3.2 km/h 81% 0 mm 93 W/m2
08:30 8.6 °C 5.5 °C 1005 hPa Calm   1.6 km/h 81% 0 mm 211 W/m2
08:36 9.1 °C 6 °C 1005 hPa NE 1.6 km/h 3.2 km/h 81% 0 mm 193 W/m2
08:42 10.2 °C 6.9 °C 1005 hPa NE 1.6 km/h 1.6 km/h 80% 0 mm 248 W/m2
08:48 11.8 °C 7.5 °C 1005 hPa Calm   3.2 km/h 75% 0 mm 299 W/m2
08:54 13.4 °C 8 °C 1005 hPa SSE 1.6 km/h 3.2 km/h 70% 0 mm 155 W/m2
08:59 14.2 °C 7.9 °C 1005 hPa SSW 3.2 km/h 3.2 km/h 66% 0 mm 176 W/m2
09:05 14.6 °C 8.1 °C 1005 hPa SSW 3.2 km/h 6.4 km/h 65% 0 mm 181 W/m2
09:12 14.8 °C 8.3 °C 1005 hPa SSW 4.8 km/h 9.7 km/h 65% 0 mm 88 W/m2
09:18 14.7 °C 8 °C 1005 hPa South 6.4 km/h 12.9 km/h 64% 0 mm 63 W/m2
09:24 14.7 °C 8.2 °C 1005 hPa South 8 km/h 9.7 km/h 65% 0 mm 91 W/m2
09:30 14.7 °C 8.2 °C 1005 hPa South 6.4 km/h 6.4 km/h 65% 0 mm 146 W/m2
09:36 14.8 °C 8.3 °C 1005 hPa WSW 6.4 km/h 8 km/h 65% 0 mm 98 W/m2
09:42 14.9 °C 8.4 °C 1005 hPa SSW 6.4 km/h 11.3 km/h 65% 0 mm 151 W/m2
09:48 15.1 °C 8.8 °C 1005 hPa SW 6.4 km/h 11.3 km/h 66% 0 mm 237 W/m2
09:53 15.4 °C 8.7 °C 1005 hPa SW 4.8 km/h 6.4 km/h 64% 0 mm 149 W/m2
09:59 15.3 °C 8.6 °C 1005 hPa South 6.4 km/h 8 km/h 64% 0 mm 172 W/m2
10:06 15.3 °C 8.8 °C 1005 hPa SW 9.7 km/h 14.5 km/h 65% 0 mm 144 W/m2
10:12 15.4 °C 8.8 °C 1005 hPa SW 8 km/h 9.7 km/h 65% 0 mm 144 W/m2
10:18 15.7 °C 9.1 °C 1005 hPa SW 8 km/h 20.9 km/h 65% 0 mm 199 W/m2
10:24 15.7 °C 9.1 °C 1005 hPa SSW 9.7 km/h 12.9 km/h 65% 0 mm 167 W/m2
10:29 15.6 °C 9.3 °C 1004.6 hPa SW 9.7 km/h 9.7 km/h 66% 0 mm 121 W/m2
10:36 15.5 °C 9.2 °C 1004.6 hPa South 9.7 km/h 12.9 km/h 66% 0 mm 98 W/m2
10:42 15.5 °C 9.4 °C 1004.6 hPa South 8 km/h 14.5 km/h 67% 0 mm 176 W/m2
10:48 15.6 °C 9.5 °C 1004.6 hPa SSW 8 km/h 14.5 km/h 67% 0 mm 225 W/m2
10:53 15.8 °C 9.7 °C 1004.3 hPa SW 8 km/h 9.7 km/h 67% 0 mm 258 W/m2
10:59 15.7 °C 9.6 °C 1004.3 hPa SW 8 km/h 16.1 km/h 67% 0 mm 163 W/m2
11:03 16.1 °C 10 °C 1004.3 hPa SSW 8 km/h 16.1 km/h 67% 0 mm 585 W/m2
11:10 17.1 °C 10.2 °C 1003.9 hPa SSE 6.4 km/h 8 km/h 64% 0 mm 608 W/m2
11:15 17.4 °C 10.3 °C 1003.9 hPa SSW 8 km/h 12.9 km/h 63% 0 mm 580 W/m2
11:22 17.6 °C 10.2 °C 1003.9 hPa SE 9.7 km/h 24.1 km/h 62% 0 mm 589 W/m2
11:28 17.9 °C 10.5 °C 1003.9 hPa SSW 9.7 km/h 24.1 km/h 62% 0 mm 599 W/m2
11:34 17.9 °C 10.3 °C 1003.6 hPa South 9.7 km/h 14.5 km/h 61% 0 mm 601 W/m2
11:39 17.9 °C 10.3 °C 1003.3 hPa SSW 12.9 km/h 12.9 km/h 61% 0 mm 601 W/m2
11:46 18.3 °C 10.7 °C 1003.3 hPa SSW 11.3 km/h 12.9 km/h 61% 0 mm 684 W/m2
11:52 18.3 °C 10.4 °C 1003.3 hPa SW 11.3 km/h 19.3 km/h 60% 0 mm 671 W/m2
11:58 18.6 °C 10.9 °C 1003.3 hPa SSE 9.7 km/h 19.3 km/h 61% 0 mm 780 W/m2
12:04 18.6 °C 10.4 °C 1003.3 hPa SW 9.7 km/h 11.3 km/h 59% 0 mm 200 W/m2
12:09 18.2 °C 10.3 °C 1003.3 hPa SSE 9.7 km/h 9.7 km/h 60% 0 mm 132 W/m2
12:15 17.9 °C 10.3 °C 1003.3 hPa SSW 11.3 km/h 11.3 km/h 61% 0 mm 192 W/m2
12:22 17.9 °C 10.3 °C 1002.9 hPa SW 9.7 km/h 12.9 km/h 61% 0 mm 195 W/m2
12:28 17.9 °C 10.6 °C 1002.9 hPa SSE 9.7 km/h 12.9 km/h 62% 0 mm 192 W/m2
12:34 18.1 °C 10.7 °C 1002.9 hPa SSW 9.7 km/h 17.7 km/h 62% 0 mm 90 W/m2
12:39 18 °C 10.4 °C 1002.9 hPa South 9.7 km/h 12.9 km/h 61% 0 mm 107 W/m2
12:46 17.9 °C 10.6 °C 1002.9 hPa WNW 8 km/h 12.9 km/h 62% 0 mm 65 W/m2
12:52 17.9 °C 10.5 °C 1002.9 hPa South 8 km/h 8 km/h 62% 0 mm 121 W/m2
12:58 18.1 °C 10.7 °C 1002.6 hPa South 8 km/h 19.3 km/h 62% 0 mm 204 W/m2
13:04 18.5 °C 11.1 °C 1002.6 hPa WSW 6.4 km/h 16.1 km/h 62% 0 mm 355 W/m2
13:09 18.8 °C 10.8 °C 1002.9 hPa West 6.4 km/h 6.4 km/h 60% 0 mm 223 W/m2
13:16 18.8 °C 10.8 °C 1002.6 hPa South 8 km/h 8 km/h 60% 0 mm 274 W/m2
13:22 19.2 °C 10.9 °C 1002.6 hPa WNW 9.7 km/h 17.7 km/h 59% 0 mm 169 W/m2
13:28 19.2 °C 10.9 °C 1002.6 hPa WSW 11.3 km/h 17.7 km/h 59% 0 mm 687 W/m2
13:34 19.8 °C 11.3 °C 1002.9 hPa West 9.7 km/h 17.7 km/h 58% 0 mm 255 W/m2
13:39 19.6 °C 10.8 °C 1002.9 hPa West 6.4 km/h 8 km/h 57% 0 mm 186 W/m2
13:45 19.3 °C 10.8 °C 1002.9 hPa SW 8 km/h 11.3 km/h 58% 0 mm 248 W/m2
13:52 19.2 °C 11 °C 1002.9 hPa SSW 8 km/h 8 km/h 59% 0 mm 116 W/m2
13:58 19.2 °C 10.9 °C 1002.9 hPa SW 4.8 km/h 9.7 km/h 59% 0 mm 172 W/m2
14:03 19.1 °C 11.2 °C 1002.9 hPa SSE 4.8 km/h 4.8 km/h 60% 0 mm 109 W/m2
14:10 20 °C 11.2 °C 1002.6 hPa SW 6.4 km/h 11.3 km/h 57% 0 mm 538 W/m2
14:15 20.3 °C 11.3 °C 1002.9 hPa SSW 6.4 km/h 11.3 km/h 56% 0 mm 496 W/m2
14:22 20.2 °C 11.2 °C 1002.9 hPa West 6.4 km/h 8 km/h 56% 0 mm 204 W/m2
14:28 20.2 °C 11.2 °C 1002.9 hPa SSW 6.4 km/h 9.7 km/h 56% 0 mm 186 W/m2
14:34 20.5 °C 11.2 °C 1002.9 hPa SW 8 km/h 9.7 km/h 55% 0 mm 327 W/m2
14:39 20.9 °C 10.9 °C 1002.9 hPa WSW 6.4 km/h 8 km/h 53% 0 mm 561 W/m2
14:46 20.6 °C 10.9 °C 1002.9 hPa WSW 6.4 km/h 8 km/h 54% 0 mm 181 W/m2
14:52 20.2 °C 10.8 °C 1002.9 hPa SW 6.4 km/h 12.9 km/h 55% 0 mm 162 W/m2
14:58 20.1 °C 10.7 °C 1003.3 hPa West 6.4 km/h 12.9 km/h 55% 0 mm 151 W/m2
15:04 19.9 °C 10.6 °C 1003.3 hPa SW 4.8 km/h 8 km/h 55% 0 mm 95 W/m2
15:10 19.9 °C 10.6 °C 1003.3 hPa WSW 4.8 km/h 4.8 km/h 55% 0 mm 44 W/m2
15:15 19 °C 10.8 °C 1003.9 hPa NNW 4.8 km/h 14.5 km/h 59% 0 mm 39 W/m2
15:22 17.8 °C 10.9 °C 1003.9 hPa NNW 8 km/h 8 km/h 64% 0 mm 53 W/m2
15:28 17 °C 10.8 °C 1003.9 hPa NW 6.4 km/h 9.7 km/h 67% 0 mm 97 W/m2
15:34 16.7 °C 10.7 °C 1003.9 hPa NNW 8 km/h 11.3 km/h 68% 0 mm 58 W/m2
15:40 16.4 °C 10.7 °C 1003.9 hPa NW 6.4 km/h 6.4 km/h 69% 0 mm 149 W/m2
15:45 16.9 °C 11.4 °C 1004.3 hPa NW 6.4 km/h 8 km/h 70% 0 mm 343 W/m2
15:52 16.9 °C 10.9 °C 1004.3 hPa NNW 6.4 km/h 9.7 km/h 68% 0 mm 90 W/m2
15:58 16.8 °C 11.1 °C 1004.3 hPa NW 6.4 km/h 9.7 km/h 69% 0 mm 264 W/m2
16:03 16.8 °C 11.3 °C 1004.3 hPa NNW 4.8 km/h 6.4 km/h 70% 0 mm 223 W/m2
16:10 16.8 °C 11.1 °C 1004.6 hPa NW 4.8 km/h 4.8 km/h 69% 0 mm 297 W/m2
16:16 17 °C 11.1 °C 1004.6 hPa NW 4.8 km/h 4.8 km/h 68% 0 mm 90 W/m2
16:22 16.7 °C 11 °C 1004.6 hPa NNW 4.8 km/h 8 km/h 69% 0 mm 65 W/m2
16:28 16.5 °C 10.8 °C 1005 hPa NNW 3.2 km/h 8 km/h 69% 0 mm 60 W/m2
16:34 16.4 °C 10.9 °C 1005 hPa WNW 3.2 km/h 6.4 km/h 70% 0 mm 84 W/m2
16:40 16.4 °C 10.9 °C 1005 hPa WNW 1.6 km/h 3.2 km/h 70% 0 mm 67 W/m2
16:46 16.4 °C 10.9 °C 1005 hPa Calm   3.2 km/h 70% 0 mm 88 W/m2
16:52 16.5 °C 11 °C 1005 hPa WNW 1.6 km/h 1.6 km/h 70% 0 mm 77 W/m2
16:58 16.6 °C 11.1 °C 1005.3 hPa Calm   1.6 km/h 70% 0 mm 63 W/m2
17:03 16.6 °C 11.1 °C 1005.3 hPa Calm   1.6 km/h 70% 0 mm 49 W/m2
17:10 16.5 °C 11 °C 1005.3 hPa Calm     70% 0 mm 16 W/m2
17:15 16.7 °C 10.6 °C 1005.3 hPa WNW 3.2 km/h 9.7 km/h 67% 0 mm 19 W/m2
17:22 17.3 °C 10.2 °C 1005.6 hPa WSW 8 km/h 8 km/h 63% 0 mm 23 W/m2
17:28 17.3 °C 10.2 °C 1006 hPa WNW 6.4 km/h 8 km/h 63% 0 mm 21 W/m2
17:34 17.2 °C 9.8 °C 1006 hPa NW 4.8 km/h 8 km/h 62% 0 mm 16 W/m2
17:40 17.1 °C 9.7 °C 1006 hPa WNW 6.4 km/h 9.7 km/h 62% 0 mm 11 W/m2
17:45 17 °C 9.7 °C 1006 hPa WNW 8 km/h 9.7 km/h 62% 0 mm 7 W/m2
17:52 16.8 °C 9.5 °C 1006 hPa WNW 6.4 km/h 8 km/h 62% 0 mm 0 W/m2
17:58 16.6 °C 9.5 °C 1006.3 hPa West 4.8 km/h 8 km/h 63% 0 mm 0 W/m2
18:04 16.4 °C 9.6 °C 1006.3 hPa WNW 3.2 km/h 6.4 km/h 64% 0 mm 0 W/m2
18:10 16.2 °C 9.4 °C 1006.3 hPa West 3.2 km/h 3.2 km/h 64% 0 mm 0 W/m2
18:15 16.1 °C 9.3 °C 1006.7 hPa WSW 3.2 km/h 12.9 km/h 64% 0 mm 0 W/m2
18:22 16.1 °C 9.2 °C 1006.7 hPa WNW 3.2 km/h 3.2 km/h 64% 0 mm 0 W/m2
18:28 15.8 °C 9.2 °C 1007 hPa NW 3.2 km/h 4.8 km/h 65% 0 mm 0 W/m2
18:33 15.7 °C 9.2 °C 1007 hPa West 3.2 km/h 3.2 km/h 65% 0 mm 0 W/m2
18:39 15.6 °C 9.3 °C 1007 hPa WNW 3.2 km/h 3.2 km/h 66% 0 mm 0 W/m2
18:46 15.6 °C 9.2 °C 1007 hPa West 3.2 km/h 3.2 km/h 66% 0 mm 0 W/m2
18:52 15.3 °C 9.2 °C 1007 hPa West 1.6 km/h 1.6 km/h 67% 0 mm 0 W/m2
18:58 15.1 °C 9.2 °C 1007.3 hPa Calm   3.2 km/h 68% 0 mm 0 W/m2
19:04 14.8 °C 9 °C 1007.3 hPa Calm   1.6 km/h 68% 0 mm 0 W/m2
19:10 14.5 °C 8.9 °C 1007.3 hPa Calm     69% 0 mm 0 W/m2
19:15 14.2 °C 8.8 °C 1007.3 hPa Calm     70% 0 mm 0 W/m2
19:22 13.7 °C 8.6 °C 1007.7 hPa Calm     71% 0 mm 0 W/m2
19:28 13.3 °C 8.4 °C 1007.7 hPa Calm     72% 0 mm 0 W/m2
19:33 13.3 °C 8.7 °C 1007.7 hPa Calm   3.2 km/h 74% 0 mm 0 W/m2
19:40 13.5 °C 8.9 °C 1008 hPa West 1.6 km/h 1.6 km/h 74% 0 mm 0 W/m2
19:46 13.7 °C 8.9 °C 1008 hPa West 1.6 km/h 1.6 km/h 73% 0 mm 0 W/m2
19:52 13.6 °C 8.7 °C 1008.7 hPa NNW 3.2 km/h 4.8 km/h 72% 0 mm 0 W/m2
19:58 13.3 °C 7.9 °C 1008.7 hPa WNW 6.4 km/h 9.7 km/h 70% 0 mm 0 W/m2
20:04 12.8 °C 7.4 °C 1009 hPa NW 6.4 km/h 8 km/h 70% 0 mm 0 W/m2
20:10 12.3 °C 7.2 °C 1009 hPa NW 6.4 km/h 6.4 km/h 71% 0 mm 0 W/m2
20:15 11.9 °C 7 °C 1009 hPa WNW 4.8 km/h 6.4 km/h 72% 0 mm 0 W/m2
20:22 11.6 °C 6.7 °C 1009 hPa NNW 3.2 km/h 3.2 km/h 72% 0 mm 0 W/m2
20:28 11.3 °C 6.6 °C 1009 hPa NNW 3.2 km/h 6.4 km/h 73% 0 mm 0 W/m2
20:34 11.1 °C 6.4 °C 1009.4 hPa WNW 3.2 km/h 3.2 km/h 73% 0 mm 0 W/m2
20:39 10.9 °C 6.2 °C 1009.7 hPa WNW 1.6 km/h 1.6 km/h 73% 0 mm 0 W/m2
20:46 10.6 °C 6.2 °C 1009.7 hPa NNW 1.6 km/h 4.8 km/h 74% 0 mm 0 W/m2
20:52 10.4 °C 5.9 °C 1010 hPa WNW 3.2 km/h 4.8 km/h 74% 0 mm 0 W/m2
20:58 10.1 °C 5.9 °C 1010 hPa WNW 3.2 km/h 4.8 km/h 75% 0 mm 0 W/m2
21:04 9.9 °C 5.7 °C 1010 hPa NW 3.2 km/h 6.4 km/h 75% 0 mm 0 W/m2
21:09 9.8 °C 5.7 °C 1010 hPa NW 4.8 km/h 4.8 km/h 76% 0 mm 0 W/m2
21:16 9.7 °C 5.6 °C 1010 hPa NW 1.6 km/h 4.8 km/h 76% 0 mm 0 W/m2
21:22 9.6 °C 5.6 °C 1010 hPa WSW 1.6 km/h 6.4 km/h 76% 0 mm 0 W/m2
21:28 9.4 °C 5.4 °C 1010.4 hPa WSW 1.6 km/h 6.4 km/h 76% 0 mm 0 W/m2
21:33 9.2 °C 5.3 °C 1010.4 hPa WSW 1.6 km/h 4.8 km/h 77% 0 mm 0 W/m2
21:40 8.9 °C 5.3 °C 1010.4 hPa NNW 1.6 km/h 1.6 km/h 78% 0 mm 0 W/m2
21:45 8.8 °C 5.2 °C 1010.4 hPa NNW 1.6 km/h 3.2 km/h 78% 0 mm 0 W/m2
21:52 8.8 °C 5.3 °C 1010.7 hPa Calm     79% 0 mm 0 W/m2
21:58 8.7 °C 5.3 °C 1010.7 hPa Calm   1.6 km/h 79% 0 mm 0 W/m2
22:04 8.7 °C 5.2 °C 1010.7 hPa Calm   3.2 km/h 79% 0 mm 0 W/m2
22:10 8.7 °C 5.2 °C 1011.1 hPa Calm     79% 0 mm 0 W/m2
22:15 8.6 °C 5.2 °C 1011.1 hPa Calm   4.8 km/h 79% 0 mm 0 W/m2
22:22 8.6 °C 5.1 °C 1010.7 hPa NW 1.6 km/h 3.2 km/h 79% 0 mm 0 W/m2
22:28 8.5 °C 4.9 °C 1010.7 hPa NNW 1.6 km/h 3.2 km/h 78% 0 mm 0 W/m2
22:34 8.4 °C 4.8 °C 1011.1 hPa NNW 1.6 km/h 1.6 km/h 78% 0 mm 0 W/m2
22:40 8.3 °C 4.7 °C 1010.7 hPa NNW 1.6 km/h 3.2 km/h 78% 0 mm 0 W/m2
22:45 8.1 °C 4.4 °C 1010.7 hPa NNW 3.2 km/h 3.2 km/h 78% 0 mm 0 W/m2
22:52 7.8 °C 4.2 °C 1010.7 hPa NNW 1.6 km/h 1.6 km/h 78% 0 mm 0 W/m2
22:58 7.6 °C 4.2 °C 1010.7 hPa Calm   1.6 km/h 79% 0 mm 0 W/m2
23:03 7.4 °C 4.1 °C 1011.1 hPa Calm     79% 0 mm 0 W/m2
23:09 7.3 °C 4.1 °C 1011.1 hPa Calm     80% 0 mm 0 W/m2
23:16 7.2 °C 3.9 °C 1011.1 hPa Calm     80% 0 mm 0 W/m2
23:22 7.1 °C 4 °C 1011.1 hPa Calm     81% 0 mm 0 W/m2
23:28 6.9 °C 4.1 °C 1011.1 hPa Calm   1.6 km/h 82% 0 mm 0 W/m2
23:33 6.9 °C 4 °C 1011.1 hPa Calm     82% 0 mm 0 W/m2
23:39 6.7 °C 3.9 °C 1011.1 hPa Calm     82% 0 mm 0 W/m2
23:46 6.6 °C 3.7 °C 1011.1 hPa Calm     82% 0 mm 0 W/m2
23:52 6.4 °C 3.6 °C 1011.1 hPa Calm     82% 0 mm 0 W/m2
Country Meadow, Clay, NY, USA
Compliments of Weather Underground - 2 mb